Time;durP1;ratioP1;P1;durP2;ratioP2;P2;SDS_P1;SDS_P2;PMS_P1;PMS_P2;Temp;Humidity;BMP_temperature;BMP_pressure;BME280_temperature;BME280_humidity;BME280_pressure;Samples;Min_cycle;Max_cycle;Signal;HPM_P1;HPM_P2
2021/04/18 00:00:59;;;;;;;11.97;9.03;;;6.30;99.90;;;;;;5084392;28;20758;-80
2021/04/18 00:03:25;;;;;;;17.53;11.40;;;6.20;99.90;;;;;;5085592;28;20188;-79
2021/04/18 00:05:50;;;;;;;19.40;12.33;;;6.20;99.90;;;;;;5085923;28;20166;-79
2021/04/18 00:08:16;;;;;;;20.40;11.90;;;6.20;99.90;;;;;;5084873;28;20461;-79
2021/04/18 00:10:42;;;;;;;22.13;10.67;;;6.20;99.90;;;;;;5084798;28;20184;-79
2021/04/18 00:13:10;;;;;;;19.07;12.83;;;6.10;99.90;;;;;;5085199;28;20186;-79
2021/04/18 00:15:39;;;;;;;19.63;11.60;;;6.10;99.90;;;;;;5086255;28;20400;-79
2021/04/18 00:18:06;;;;;;;16.53;11.70;;;6.10;99.90;;;;;;5084276;28;20404;-80
2021/04/18 00:20:31;;;;;;;26.87;12.20;;;6.10;99.90;;;;;;5084844;28;20531;-80
2021/04/18 00:22:57;;;;;;;20.40;12.60;;;6.10;99.90;;;;;;5089449;28;20535;-81
2021/04/18 00:25:23;;;;;;;18.80;12.20;;;6.10;99.90;;;;;;5083017;28;20202;-81
2021/04/18 00:27:49;;;;;;;17.67;12.53;;;6.00;99.90;;;;;;5067579;28;20453;-79
2021/04/18 00:30:18;;;;;;;21.17;12.70;;;6.00;99.90;;;;;;5068353;28;20170;-80
2021/04/18 00:32:44;;;;;;;17.33;11.40;;;6.00;99.90;;;;;;5067911;28;20998;-81
2021/04/18 00:35:11;;;;;;;15.60;10.70;;;6.00;99.90;;;;;;5082072;28;20485;-80
2021/04/18 00:37:38;;;;;;;17.80;12.50;;;5.90;99.90;;;;;;5088149;28;20458;-79
2021/04/18 00:40:12;;;;;;;14.80;11.17;;;5.90;99.90;;;;;;5084818;28;20462;-79
2021/04/18 00:42:38;;;;;;;24.70;13.10;;;5.90;99.90;;;;;;5089780;28;20446;-80
2021/04/18 00:45:06;;;;;;;21.63;12.10;;;5.90;99.90;;;;;;5104556;28;20437;-80
2021/04/18 00:47:32;;;;;;;17.87;11.40;;;5.90;99.90;;;;;;5102774;28;20207;-79
2021/04/18 00:49:59;;;;;;;17.53;12.53;;;5.90;99.90;;;;;;5101011;28;20404;-80
2021/04/18 00:52:24;;;;;;;27.57;11.10;;;5.90;99.90;;;;;;5101294;28;20435;-80
2021/04/18 00:54:50;;;;;;;13.33;10.97;;;5.90;99.90;;;;;;5100120;28;20444;-80
2021/04/18 00:57:16;;;;;;;15.80;11.90;;;5.90;99.90;;;;;;5101800;28;20199;-80
2021/04/18 00:59:42;;;;;;;17.33;11.60;;;5.90;99.90;;;;;;5102884;28;20561;-79
2021/04/18 01:02:07;;;;;;;17.90;11.73;;;5.90;99.90;;;;;;5102335;28;20181;-79
2021/04/18 01:04:33;;;;;;;17.13;13.40;;;5.90;99.90;;;;;;5101817;28;20495;-79
2021/04/18 01:06:58;;;;;;;15.07;10.80;;;5.90;99.90;;;;;;5102295;28;20166;-80
2021/04/18 01:09:24;;;;;;;19.80;13.20;;;5.90;99.90;;;;;;5107590;28;20169;-79
2021/04/18 01:11:49;;;;;;;17.93;11.40;;;5.90;99.90;;;;;;5101950;28;20238;-80
2021/04/18 01:14:15;;;;;;;25.47;12.80;;;5.90;99.90;;;;;;5101226;28;20173;-80
2021/04/18 01:16:44;;;;;;;18.20;13.20;;;5.90;99.90;;;;;;5108153;28;20189;-80
2021/04/18 01:19:09;;;;;;;21.10;13.33;;;5.90;99.90;;;;;;5095115;28;20220;-80
2021/04/18 01:21:34;;;;;;;20.50;13.17;;;6.00;99.90;;;;;;5080917;28;20408;-80
2021/04/18 01:24:00;;;;;;;17.83;12.17;;;6.00;99.90;;;;;;5081243;28;20182;-80
2021/04/18 01:26:25;;;;;;;18.37;13.07;;;6.00;99.90;;;;;;5080855;28;20181;-80
2021/04/18 01:28:51;;;;;;;18.80;12.83;;;6.10;99.90;;;;;;5082053;28;20171;-80
2021/04/18 01:31:16;;;;;;;21.90;11.90;;;6.10;99.90;;;;;;5080957;28;20170;-80
2021/04/18 01:33:42;;;;;;;23.43;13.07;;;6.10;99.90;;;;;;5079713;28;20200;-79
2021/04/18 01:36:08;;;;;;;28.23;16.07;;;6.10;99.90;;;;;;5060484;28;20182;-80
2021/04/18 01:38:34;;;;;;;17.63;11.73;;;6.20;99.90;;;;;;5062357;28;20250;-80
2021/04/18 01:41:00;;;;;;;18.17;12.93;;;6.10;99.90;;;;;;5061685;28;20838;-80
2021/04/18 01:43:25;;;;;;;24.93;13.40;;;6.20;99.90;;;;;;5064358;28;20260;-80
2021/04/18 01:45:51;;;;;;;16.63;11.20;;;6.20;99.90;;;;;;5065431;28;20178;-81
2021/04/18 01:48:17;;;;;;;17.37;13.07;;;6.20;99.90;;;;;;5067282;28;20255;-80
2021/04/18 01:50:47;;;;;;;18.20;12.13;;;6.20;99.90;;;;;;5066472;28;20502;-80
2021/04/18 01:53:12;;;;;;;20.33;13.87;;;6.20;99.90;;;;;;5064571;28;20449;-81
2021/04/18 01:55:39;;;;;;;25.07;14.13;;;6.20;99.90;;;;;;5069065;28;20807;-80
2021/04/18 01:58:06;;;;;;;17.20;12.90;;;6.30;99.90;;;;;;5067266;28;20280;-80
2021/04/18 02:00:31;;;;;;;25.70;13.40;;;6.20;99.90;;;;;;5066814;28;20448;-80
2021/04/18 02:02:58;;;;;;;18.50;14.03;;;6.20;99.90;;;;;;5065890;28;20474;-80
2021/04/18 02:05:24;;;;;;;21.30;12.37;;;6.20;99.90;;;;;;5066331;28;20169;-80
2021/04/18 02:07:49;;;;;;;21.50;13.17;;;6.20;99.90;;;;;;5062993;28;20488;-79
2021/04/18 02:10:16;;;;;;;24.90;14.67;;;6.20;99.90;;;;;;5076875;28;20444;-80
2021/04/18 02:12:42;;;;;;;15.93;12.57;;;6.20;99.90;;;;;;5095648;28;20190;-81
2021/04/18 02:15:08;;;;;;;21.03;12.63;;;6.10;99.90;;;;;;5097823;28;20409;-81
2021/04/18 02:17:34;;;;;;;25.27;13.50;;;6.10;99.90;;;;;;5088179;28;20432;-81
2021/04/18 02:19:59;;;;;;;22.93;14.80;;;6.20;99.90;;;;;;5085871;28;20448;-79
2021/04/18 02:22:25;;;;;;;20.13;15.23;;;6.10;99.90;;;;;;5086136;28;20202;-81
2021/04/18 02:24:50;;;;;;;24.57;13.77;;;6.10;99.90;;;;;;5083989;28;20212;-81
2021/04/18 02:27:17;;;;;;;17.50;14.07;;;6.10;99.90;;;;;;5080211;28;20163;-79
2021/04/18 02:29:42;;;;;;;21.37;14.17;;;6.10;99.90;;;;;;5078198;28;20680;-81
2021/04/18 02:32:08;;;;;;;19.60;14.67;;;6.00;99.90;;;;;;5083802;28;20433;-80
2021/04/18 02:34:34;;;;;;;23.90;13.87;;;6.10;99.90;;;;;;5088886;28;20664;-80
2021/04/18 02:36:59;;;;;;;21.00;13.43;;;6.10;99.90;;;;;;5102557;28;20177;-81
2021/04/18 02:39:25;;;;;;;19.40;14.43;;;6.10;99.90;;;;;;5105874;28;20179;-79
2021/04/18 02:41:50;;;;;;;23.27;13.83;;;6.10;99.90;;;;;;5102637;28;20210;-80
2021/04/18 02:44:16;;;;;;;17.73;14.77;;;6.10;99.90;;;;;;5079826;28;20162;-78
2021/04/18 02:46:42;;;;;;;24.83;14.30;;;6.10;99.90;;;;;;5079899;28;20162;-79
2021/04/18 02:49:07;;;;;;;23.57;15.50;;;6.10;99.90;;;;;;5079797;28;20220;-80
2021/04/18 02:51:33;;;;;;;22.93;14.10;;;6.00;99.90;;;;;;5079440;28;20167;-79
2021/04/18 02:54:00;;;;;;;26.63;15.50;;;6.10;99.90;;;;;;5078633;28;20483;-79
2021/04/18 02:56:26;;;;;;;34.17;18.87;;;6.10;99.90;;;;;;5077236;28;20534;-79
2021/04/18 02:58:52;;;;;;;32.33;19.03;;;6.00;99.90;;;;;;5077873;28;20912;-79
2021/04/18 03:01:18;;;;;;;28.03;17.90;;;6.00;99.90;;;;;;5079928;28;20504;-79
2021/04/18 03:03:44;;;;;;;32.63;19.43;;;6.00;99.90;;;;;;5080883;28;20186;-80
2021/04/18 03:06:09;;;;;;;34.87;19.80;;;5.90;99.90;;;;;;5078755;28;20807;-79
2021/04/18 03:08:35;;;;;;;32.87;22.63;;;5.90;99.90;;;;;;5080576;28;20240;-80
2021/04/18 03:11:00;;;;;;;30.20;21.67;;;5.90;99.90;;;;;;5070793;28;20221;-80
2021/04/18 03:13:26;;;;;;;35.80;21.07;;;5.80;99.90;;;;;;5058778;28;20194;-78
2021/04/18 03:15:51;;;;;;;32.33;22.30;;;5.80;99.90;;;;;;5056110;28;20185;-79
2021/04/18 03:18:17;;;;;;;38.33;22.37;;;5.80;99.90;;;;;;5057628;28;20175;-78
2021/04/18 03:20:43;;;;;;;40.57;25.63;;;5.80;99.90;;;;;;5055998;28;20222;-78
2021/04/18 03:23:08;;;;;;;42.53;23.60;;;5.70;99.90;;;;;;5058297;28;20201;-78
2021/04/18 03:25:34;;;;;;;46.40;24.77;;;5.70;99.90;;;;;;5058263;28;20178;-79
2021/04/18 03:28:00;;;;;;;41.10;23.97;;;5.70;99.90;;;;;;5058078;28;20190;-80
2021/04/18 03:30:25;;;;;;;46.60;25.63;;;5.70;99.90;;;;;;5060250;28;20770;-80
2021/04/18 03:32:51;;;;;;;44.67;26.27;;;5.70;99.90;;;;;;5058752;28;20195;-78
2021/04/18 03:35:17;;;;;;;39.33;23.93;;;5.80;99.90;;;;;;5084019;28;20642;-80
2021/04/18 03:37:42;;;;;;;48.37;25.20;;;5.70;99.90;;;;;;5090281;28;20205;-80
2021/04/18 03:40:08;;;;;;;41.43;26.80;;;5.70;99.90;;;;;;5083462;28;20189;-79
2021/04/18 03:42:34;;;;;;;51.13;27.33;;;5.70;99.90;;;;;;5084454;28;20190;-79
2021/04/18 03:44:59;;;;;;;43.63;24.37;;;5.70;99.90;;;;;;5098590;28;20891;-79
2021/04/18 03:47:25;;;;;;;43.77;26.23;;;5.70;99.90;;;;;;5097540;28;20165;-79
2021/04/18 03:49:50;;;;;;;42.67;27.17;;;5.70;99.90;;;;;;5098320;28;20299;-79
2021/04/18 03:52:16;;;;;;;50.93;27.30;;;5.80;99.90;;;;;;5100744;28;20347;-79
2021/04/18 03:54:41;;;;;;;45.43;27.80;;;5.80;99.90;;;;;;5079511;28;20194;-79
2021/04/18 03:57:07;;;;;;;51.70;29.83;;;5.80;99.90;;;;;;5060325;28;20186;-79
2021/04/18 03:59:33;;;;;;;50.77;28.17;;;5.80;99.90;;;;;;5058066;28;20221;-80
2021/04/18 04:01:58;;;;;;;51.30;27.10;;;5.70;99.90;;;;;;5058046;28;20224;-79
2021/04/18 04:04:23;;;;;;;56.30;29.80;;;5.80;99.90;;;;;;5059335;28;20178;-79
2021/04/18 04:06:49;;;;;;;43.63;27.03;;;5.70;99.90;;;;;;5058550;28;20171;-79
2021/04/18 04:09:14;;;;;;;56.83;30.37;;;5.70;99.90;;;;;;5073356;28;20192;-79
2021/04/18 04:11:41;;;;;;;56.37;32.63;;;5.70;99.90;;;;;;5085307;28;20173;-79
2021/04/18 04:14:06;;;;;;;57.33;32.00;;;5.70;99.90;;;;;;5093171;28;20194;-79
2021/04/18 04:16:32;;;;;;;58.53;30.80;;;5.70;99.90;;;;;;5099170;28;20463;-79
2021/04/18 04:18:57;;;;;;;51.43;29.63;;;5.80;99.90;;;;;;5099510;28;20170;-80
2021/04/18 04:21:23;;;;;;;70.00;27.00;;;5.70;99.90;;;;;;5099425;28;20729;-79
2021/04/18 04:23:48;;;;;;;54.67;29.30;;;5.80;99.90;;;;;;5100949;28;20196;-78
2021/04/18 04:26:14;;;;;;;52.73;27.40;;;5.80;99.90;;;;;;5102674;28;20177;-80
2021/04/18 04:28:39;;;;;;;65.30;27.67;;;5.80;99.90;;;;;;5102257;28;20199;-79
2021/04/18 04:31:05;;;;;;;50.13;28.30;;;5.80;99.90;;;;;;5101882;28;20193;-79
2021/04/18 04:33:36;;;;;;;53.33;29.63;;;5.80;99.90;;;;;;5099982;28;20262;-79
2021/04/18 04:36:01;;;;;;;66.00;29.03;;;5.80;99.90;;;;;;5082248;28;20166;-79
2021/04/18 04:38:27;;;;;;;84.43;28.13;;;5.70;99.90;;;;;;5081918;28;20443;-79
2021/04/18 04:40:53;;;;;;;53.27;25.40;;;5.80;99.90;;;;;;5083019;28;20202;-79
2021/04/18 04:43:18;;;;;;;47.10;24.60;;;5.80;99.90;;;;;;5094342;28;20280;-79
2021/04/18 04:45:44;;;;;;;47.03;25.93;;;5.70;99.90;;;;;;5102550;28;20681;-79
2021/04/18 04:48:10;;;;;;;45.17;24.73;;;5.70;99.90;;;;;;5102257;28;20239;-79
2021/04/18 04:50:36;;;;;;;65.93;26.97;;;5.80;99.90;;;;;;5104407;28;20189;-79
2021/04/18 04:53:01;;;;;;;54.43;24.40;;;5.80;99.90;;;;;;5102645;28;20461;-79
2021/04/18 04:55:27;;;;;;;52.83;27.30;;;5.80;99.90;;;;;;5103043;28;20174;-79
2021/04/18 04:57:52;;;;;;;56.07;26.63;;;5.80;99.90;;;;;;5100778;28;20189;-79
2021/04/18 05:00:18;;;;;;;58.83;26.87;;;5.70;99.90;;;;;;5102703;28;20205;-79
2021/04/18 05:02:44;;;;;;;54.17;25.47;;;5.70;99.90;;;;;;5101269;28;20193;-79
2021/04/18 05:05:10;;;;;;;46.67;26.90;;;5.70;99.90;;;;;;5100671;28;20411;-80
2021/04/18 05:07:36;;;;;;;50.57;25.10;;;5.80;99.90;;;;;;5101384;28;20165;-80
2021/04/18 05:10:02;;;;;;;52.20;25.57;;;5.80;99.90;;;;;;5093077;28;20484;-80
2021/04/18 05:12:27;;;;;;;51.70;26.40;;;5.80;99.90;;;;;;5092118;28;20225;-79
2021/04/18 05:14:52;;;;;;;48.07;24.77;;;5.80;99.90;;;;;;5105922;28;20170;-80
2021/04/18 05:17:18;;;;;;;46.60;24.30;;;5.80;99.90;;;;;;5104068;28;20174;-79
2021/04/18 05:19:44;;;;;;;43.83;26.30;;;5.80;99.90;;;;;;5100903;28;20255;-79
2021/04/18 05:22:09;;;;;;;44.23;25.33;;;5.80;99.90;;;;;;5101147;28;20190;-79
2021/04/18 05:24:34;;;;;;;49.00;26.47;;;5.80;99.90;;;;;;5100896;28;20175;-79
2021/04/18 05:27:00;;;;;;;44.20;24.10;;;5.80;99.90;;;;;;5101688;28;20216;-79
2021/04/18 05:29:26;;;;;;;49.50;25.60;;;5.80;99.90;;;;;;5101626;28;20162;-79
2021/04/18 05:31:54;;;;;;;45.97;25.13;;;5.80;99.90;;;;;;5101312;28;20215;-79
2021/04/18 05:34:19;;;;;;;48.03;25.37;;;5.80;99.90;;;;;;5093169;28;20420;-80
2021/04/18 05:36:45;;;;;;;44.10;24.93;;;5.80;99.90;;;;;;5081980;28;20401;-79
2021/04/18 05:39:10;;;;;;;49.07;25.70;;;5.90;99.90;;;;;;5082260;28;20248;-80
2021/04/18 05:41:36;;;;;;;53.87;26.10;;;5.90;99.90;;;;;;5091883;28;20237;-80
2021/04/18 05:44:03;;;;;;;42.37;25.83;;;5.90;99.90;;;;;;5108808;28;20200;-80
2021/04/18 05:46:29;;;;;;;46.30;25.23;;;6.00;99.90;;;;;;5102473;28;20169;-80
2021/04/18 05:48:54;;;;;;;50.23;26.67;;;6.10;99.90;;;;;;5102993;28;20490;-79
2021/04/18 05:51:20;;;;;;;45.33;24.77;;;6.10;99.90;;;;;;5102133;28;20176;-80
2021/04/18 05:53:45;;;;;;;50.97;26.67;;;6.10;99.90;;;;;;5100090;28;20264;-79
2021/04/18 05:56:11;;;;;;;53.50;25.20;;;6.00;99.90;;;;;;5100602;28;20180;-79
2021/04/18 05:58:36;;;;;;;43.00;25.70;;;6.10;99.90;;;;;;5102158;28;20702;-79
2021/04/18 06:01:02;;;;;;;47.33;25.87;;;6.00;99.90;;;;;;5099818;28;20566;-79
2021/04/18 06:03:27;;;;;;;45.70;25.63;;;6.10;99.90;;;;;;5101514;28;20196;-79
2021/04/18 06:05:53;;;;;;;61.37;30.10;;;6.20;99.90;;;;;;5103991;28;20165;-80
2021/04/18 06:08:18;;;;;;;53.60;26.17;;;6.20;99.90;;;;;;5102592;28;20166;-80
2021/04/18 06:10:44;;;;;;;57.80;28.27;;;6.20;99.90;;;;;;5082436;28;20233;-80
2021/04/18 06:13:09;;;;;;;46.67;24.87;;;6.10;99.90;;;;;;5062339;28;20195;-80
2021/04/18 06:15:35;;;;;;;57.03;27.27;;;6.20;99.90;;;;;;5064565;28;20175;-80
2021/04/18 06:18:00;;;;;;;48.73;27.63;;;6.30;99.90;;;;;;5062620;28;20178;-80
2021/04/18 06:20:26;;;;;;;52.07;27.47;;;6.30;99.90;;;;;;5063426;28;20195;-80
2021/04/18 06:22:51;;;;;;;51.43;26.70;;;6.30;99.90;;;;;;5059603;28;20202;-79
2021/04/18 06:25:17;;;;;;;44.80;24.70;;;6.20;99.90;;;;;;5059808;28;20526;-79
2021/04/18 06:27:43;;;;;;;51.00;25.20;;;6.30;99.90;;;;;;5063890;28;20228;-79
2021/04/18 06:30:10;;;;;;;52.60;27.10;;;6.20;99.90;;;;;;5063819;28;20175;-79
2021/04/18 06:32:35;;;;;;;52.53;29.33;;;6.20;99.90;;;;;;5066517;28;20430;-81
2021/04/18 06:35:01;;;;;;;53.57;26.90;;;6.20;99.90;;;;;;5091937;28;20927;-80
2021/04/18 06:37:27;;;;;;;48.17;27.07;;;6.10;99.90;;;;;;5105939;28;20200;-81
2021/04/18 06:39:53;;;;;;;51.63;24.93;;;6.20;99.90;;;;;;5109940;28;20454;-81
2021/04/18 06:42:21;;;;;;;46.63;27.23;;;6.20;99.90;;;;;;5105760;28;20472;-80
2021/04/18 06:44:47;;;;;;;44.37;24.77;;;6.30;99.90;;;;;;5088994;28;20174;-80
2021/04/18 06:47:14;;;;;;;50.50;28.53;;;6.30;99.90;;;;;;5088541;28;20510;-81
2021/04/18 06:49:40;;;;;;;46.43;26.37;;;6.40;99.90;;;;;;5092542;28;20174;-80
2021/04/18 06:52:07;;;;;;;52.83;28.97;;;6.40;99.90;;;;;;5108635;28;20430;-79
2021/04/18 06:54:33;;;;;;;46.70;26.10;;;6.40;99.90;;;;;;5109725;28;20429;-80
2021/04/18 06:56:58;;;;;;;45.47;25.80;;;6.40;99.90;;;;;;5100984;28;20411;-79
2021/04/18 06:59:24;;;;;;;49.33;26.70;;;6.50;99.90;;;;;;5102837;28;20174;-79
2021/04/18 07:01:49;;;;;;;47.90;28.83;;;6.40;99.90;;;;;;5098725;28;20173;-78
2021/04/18 07:04:22;;;;;;;47.30;26.47;;;6.50;99.90;;;;;;5102248;28;20189;-81
2021/04/18 07:07:38;;;;;;;53.47;27.67;;;6.60;99.90;;;;;;5106562;28;20173;-80
2021/04/18 07:10:33;;;;;;;44.13;27.47;;;6.50;99.90;;;;;;5093809;28;20416;-79
2021/04/18 07:13:08;;;;;;;45.70;24.33;;;6.50;99.90;;;;;;5085431;28;20470;-81
2021/04/18 07:15:40;;;;;;;41.63;25.47;;;6.40;99.90;;;;;;5089061;28;20426;-81
2021/04/18 07:18:06;;;;;;;40.33;24.00;;;6.50;99.90;;;;;;5079749;28;20465;-75
2021/04/18 07:20:32;;;;;;;45.70;27.00;;;6.50;99.90;;;;;;5073646;28;20452;-78
2021/04/18 07:23:22;;;;;;;41.37;24.50;;;6.50;99.90;;;;;;5074049;28;20477;-78
2021/04/18 07:25:48;;;;;;;44.27;23.50;;;6.60;99.90;;;;;;5072542;28;20908;-76
2021/04/18 07:28:37;;;;;;;37.63;23.43;;;6.30;99.90;;;;;;5080718;28;20408;-76
2021/04/18 07:41:49;;;;;;;32.17;20.77;;;6.60;99.90;;;;;;5114242;28;20472;-82
2021/04/18 07:48:32;;;;;;;33.57;19.90;;;6.60;99.90;;;;;;5068918;28;20539;-81
2021/04/18 07:51:03;;;;;;;35.00;20.57;;;6.60;99.90;;;;;;5087020;28;20529;-82
2021/04/18 07:54:00;;;;;;;24.53;19.20;;;6.60;99.90;;;;;;5087529;28;20454;-80
2021/04/18 07:56:26;;;;;;;29.60;18.97;;;6.70;99.90;;;;;;5086196;28;20412;-81
2021/04/18 07:58:52;;;;;;;26.37;18.20;;;6.80;99.90;;;;;;5072776;28;20416;-80
2021/04/18 08:01:21;;;;;;;26.40;18.63;;;6.70;99.90;;;;;;5091938;28;20444;-81
2021/04/18 08:03:51;;;;;;;31.77;19.63;;;6.70;99.90;;;;;;5073916;28;20464;-80
2021/04/18 08:06:18;;;;;;;26.40;18.73;;;6.70;99.90;;;;;;5090412;28;20426;-80
2021/04/18 08:08:47;;;;;;;32.80;19.00;;;6.60;99.90;;;;;;5089496;28;20446;-80
2021/04/18 08:11:14;;;;;;;31.60;19.87;;;6.70;99.90;;;;;;5093885;28;20764;-80
2021/04/18 08:13:47;;;;;;;32.30;20.17;;;6.70;99.90;;;;;;5087471;28;20431;-80
2021/04/18 08:16:13;;;;;;;30.17;18.33;;;6.60;99.90;;;;;;5103163;28;20707;-80
2021/04/18 08:18:46;;;;;;;29.30;18.50;;;6.70;99.90;;;;;;5102843;28;20408;-79
2021/04/18 08:21:28;;;;;;;27.60;18.00;;;6.70;99.90;;;;;;5101929;28;20238;-79
2021/04/18 08:23:54;;;;;;;24.50;16.70;;;6.70;99.90;;;;;;5102181;28;21044;-79
2021/04/18 08:26:22;;;;;;;23.30;15.03;;;6.60;99.90;;;;;;5103738;28;20435;-80
2021/04/18 08:29:03;;;;;;;21.30;14.80;;;6.50;99.90;;;;;;5103829;28;20396;-80
2021/04/18 08:31:30;;;;;;;18.03;13.97;;;6.50;99.90;;;;;;5101479;28;20404;-80
2021/04/18 08:34:01;;;;;;;18.07;13.60;;;6.60;99.90;;;;;;5099030;28;20428;-79
2021/04/18 08:36:31;;;;;;;15.87;13.20;;;6.70;99.90;;;;;;5083045;28;20432;-79
2021/04/18 08:39:00;;;;;;;17.73;13.77;;;6.70;99.90;;;;;;5082799;28;20409;-80
2021/04/18 08:41:44;;;;;;;19.30;13.50;;;6.80;99.90;;;;;;5084891;28;20451;-80
2021/04/18 08:44:30;;;;;;;18.87;14.03;;;6.90;99.90;;;;;;5106643;28;20763;-80
2021/04/18 08:47:04;;;;;;;17.37;13.43;;;7.10;99.90;;;;;;5101361;28;20809;-80
2021/04/18 08:49:39;;;;;;;13.57;11.83;;;7.10;99.90;;;;;;5085628;28;20808;-80
2021/04/18 08:52:10;;;;;;;16.80;13.80;;;7.00;99.90;;;;;;5087217;28;20420;-80
2021/04/18 08:54:37;;;;;;;15.80;12.13;;;7.20;99.90;;;;;;5087505;28;20413;-80
2021/04/18 08:57:07;;;;;;;18.07;13.20;;;7.20;99.90;;;;;;5086207;28;20838;-80
2021/04/18 08:59:33;;;;;;;16.60;12.83;;;7.10;99.90;;;;;;5089008;28;20393;-78
2021/04/18 09:02:09;;;;;;;16.37;13.00;;;7.10;99.90;;;;;;5082275;28;20424;-80
2021/04/18 09:04:38;;;;;;;14.80;12.83;;;7.00;99.90;;;;;;5084655;28;20421;-80
2021/04/18 09:07:05;;;;;;;21.80;14.47;;;7.10;99.90;;;;;;5081520;28;20410;-79
2021/04/18 09:09:31;;;;;;;20.87;14.83;;;7.00;99.90;;;;;;5095122;28;20405;-80
2021/04/18 09:11:57;;;;;;;19.03;14.87;;;7.00;99.90;;;;;;5072136;28;20417;-79
2021/04/18 09:14:30;;;;;;;18.47;14.33;;;7.00;99.90;;;;;;5068005;28;20547;-80
2021/04/18 09:17:16;;;;;;;19.40;13.47;;;6.90;99.90;;;;;;5066382;28;20417;-79
2021/04/18 09:20:03;;;;;;;19.70;13.83;;;6.90;99.90;;;;;;5074472;28;20505;-80
2021/04/18 09:22:39;;;;;;;15.37;13.70;;;6.90;99.90;;;;;;5085121;28;20658;-79
2021/04/18 09:25:17;;;;;;;18.73;14.93;;;6.90;99.90;;;;;;5084759;28;20424;-80
2021/04/18 09:27:52;;;;;;;18.63;13.47;;;6.90;99.90;;;;;;5088237;28;20401;-79
2021/04/18 09:30:21;;;;;;;16.97;12.37;;;7.00;99.90;;;;;;5093829;28;20400;-80
2021/04/18 09:32:51;;;;;;;19.53;14.67;;;7.00;99.90;;;;;;5087629;28;20428;-78
2021/04/18 09:35:22;;;;;;;17.20;12.30;;;7.10;99.90;;;;;;5103548;28;20480;-78
2021/04/18 09:37:55;;;;;;;13.83;12.33;;;7.20;99.90;;;;;;5089793;28;20409;-78
2021/04/18 09:40:23;;;;;;;16.03;12.57;;;7.10;99.90;;;;;;5088920;28;20452;-79
2021/04/18 09:42:50;;;;;;;15.10;13.13;;;7.20;99.90;;;;;;5099100;28;20432;-79
2021/04/18 09:45:19;;;;;;;16.30;12.10;;;7.60;99.90;;;;;;5111097;28;20415;-79
2021/04/18 09:47:47;;;;;;;17.47;13.20;;;7.60;99.90;;;;;;5101563;28;20415;-79
2021/04/18 09:50:30;;;;;;;14.60;12.63;;;7.80;99.90;;;;;;5095606;28;20447;-80
2021/04/18 09:53:11;;;;;;;15.73;11.50;;;8.00;99.90;;;;;;5084854;28;20440;-79
2021/04/18 09:55:53;;;;;;;16.50;13.00;;;8.20;99.90;;;;;;5084477;28;20408;-79
2021/04/18 09:58:33;;;;;;;14.83;11.70;;;8.20;99.90;;;;;;5084031;28;20408;-80
2021/04/18 10:00:59;;;;;;;14.07;11.43;;;8.60;99.90;;;;;;5089128;28;20448;-79
2021/04/18 10:03:35;;;;;;;11.57;10.47;;;8.50;99.90;;;;;;5085543;28;20413;-79
2021/04/18 10:06:01;;;;;;;11.50;10.30;;;8.90;99.90;;;;;;5088371;28;20396;-79
2021/04/18 10:08:32;;;;;;;13.40;9.93;;;9.10;99.90;;;;;;5087900;28;20441;-79
2021/04/18 10:11:07;;;;;;;11.37;10.17;;;9.20;99.90;;;;;;5087201;28;20163;-77
2021/04/18 10:13:45;;;;;;;12.40;9.70;;;9.50;99.90;;;;;;5095587;28;20427;-79
2021/04/18 10:16:13;;;;;;;11.77;10.67;;;9.90;99.90;;;;;;5106916;28;20431;-78
2021/04/18 10:18:41;;;;;;;10.00;8.50;;;9.90;99.90;;;;;;5109865;28;20403;-80
2021/04/18 10:21:23;;;;;;;9.67;8.73;;;10.10;99.90;;;;;;5107911;28;20451;-79
2021/04/18 10:23:50;;;;;;;10.87;9.83;;;10.00;99.90;;;;;;5106609;28;20503;-80
2021/04/18 10:26:18;;;;;;;9.70;8.80;;;10.20;99.90;;;;;;5104082;28;20404;-79
2021/04/18 10:28:45;;;;;;;8.67;7.77;;;10.70;99.90;;;;;;5105888;28;20422;-80
2021/04/18 10:31:12;;;;;;;10.13;9.07;;;11.20;99.90;;;;;;5110549;28;20438;-79
2021/04/18 10:33:38;;;;;;;10.20;9.30;;;11.00;99.90;;;;;;5100280;28;20792;-75
2021/04/18 10:36:03;;;;;;;8.33;7.53;;;11.20;99.90;;;;;;5081067;28;20419;-79
2021/04/18 10:38:30;;;;;;;8.93;7.97;;;11.10;99.90;;;;;;5089901;28;20170;-80
2021/04/18 10:40:56;;;;;;;9.60;8.60;;;11.10;99.90;;;;;;5089364;28;20200;-80
2021/04/18 10:43:22;;;;;;;8.47;7.60;;;11.40;99.90;;;;;;5098943;28;20443;-79
2021/04/18 10:45:47;;;;;;;8.67;7.83;;;11.80;99.90;;;;;;5108772;28;20170;-79
2021/04/18 10:48:12;;;;;;;10.13;8.40;;;11.60;99.90;;;;;;5092692;28;20181;-79
2021/04/18 10:50:38;;;;;;;8.07;7.27;;;11.60;99.90;;;;;;5087729;28;20242;-80
2021/04/18 10:53:04;;;;;;;10.43;9.33;;;11.90;99.90;;;;;;5087487;28;20232;-80
2021/04/18 10:55:29;;;;;;;9.67;8.67;;;12.40;99.90;;;;;;5090763;28;20196;-80
2021/04/18 10:57:55;;;;;;;9.27;8.20;;;12.10;99.90;;;;;;5090591;28;20257;-79
2021/04/18 11:00:21;;;;;;;10.50;9.40;;;12.10;99.90;;;;;;5084735;28;20202;-78
2021/04/18 11:02:47;;;;;;;9.43;8.63;;;11.80;99.90;;;;;;5079918;28;20190;-79
2021/04/18 11:05:13;;;;;;;10.23;9.23;;;11.70;99.90;;;;;;5087923;28;20188;-74
2021/04/18 11:07:38;;;;;;;10.13;9.30;;;11.90;99.90;;;;;;5084127;28;20177;-78
2021/04/18 11:10:06;;;;;;;10.03;9.07;;;11.90;99.90;;;;;;5077505;28;20405;-81
2021/04/18 11:12:32;;;;;;;9.90;8.90;;;12.00;99.90;;;;;;5089331;28;20201;-80
2021/04/18 11:14:57;;;;;;;9.30;8.40;;;12.10;99.90;;;;;;5099774;28;20403;-80
2021/04/18 11:17:23;;;;;;;10.50;9.20;;;12.00;99.90;;;;;;5099343;28;20197;-81
2021/04/18 11:19:50;;;;;;;10.30;8.73;;;11.80;99.90;;;;;;5104973;28;20382;-82
2021/04/18 11:22:16;;;;;;;11.73;9.80;;;11.60;99.90;;;;;;5105772;28;20203;-80
2021/04/18 11:24:42;;;;;;;10.83;9.73;;;11.60;99.90;;;;;;5105497;28;20415;-82
2021/04/18 11:27:08;;;;;;;10.73;9.60;;;11.60;99.90;;;;;;5103938;28;20411;-80
2021/04/18 11:29:34;;;;;;;12.13;10.10;;;11.60;99.90;;;;;;5098991;28;20174;-80
2021/04/18 11:31:59;;;;;;;10.43;9.40;;;11.50;99.90;;;;;;5080364;28;20175;-80
2021/04/18 11:34:25;;;;;;;11.00;9.60;;;11.50;99.90;;;;;;5090573;28;20193;-82
2021/04/18 11:36:50;;;;;;;10.73;9.73;;;11.60;99.90;;;;;;5103567;28;20164;-81
2021/04/18 11:39:16;;;;;;;11.87;10.67;;;11.60;99.90;;;;;;5102243;28;20219;-81
2021/04/18 11:41:41;;;;;;;12.60;11.33;;;11.80;99.90;;;;;;5101087;28;20245;-81
2021/04/18 11:44:07;;;;;;;10.00;9.00;;;11.80;99.90;;;;;;5082451;28;20190;-81
2021/04/18 11:46:33;;;;;;;11.23;10.10;;;11.60;99.90;;;;;;5071941;28;20197;-80
2021/04/18 11:48:59;;;;;;;10.67;9.63;;;11.80;99.90;;;;;;5078541;28;20599;-80
2021/04/18 11:51:25;;;;;;;11.73;9.83;;;11.90;99.90;;;;;;5062120;28;20429;-79
2021/04/18 11:53:50;;;;;;;9.57;8.63;;;12.00;99.90;;;;;;5060878;28;20210;-81
2021/04/18 11:56:16;;;;;;;13.33;10.00;;;11.90;99.90;;;;;;5062318;28;20179;-79
2021/04/18 11:58:42;;;;;;;10.57;9.07;;;11.80;99.90;;;;;;5060325;28;20228;-78
2021/04/18 12:01:08;;;;;;;10.10;9.20;;;12.10;99.90;;;;;;5060901;28;20210;-81
2021/04/18 12:03:34;;;;;;;10.27;9.27;;;12.10;99.90;;;;;;5064907;28;20429;-78
2021/04/18 12:05:59;;;;;;;11.57;9.97;;;12.10;99.90;;;;;;5065959;28;20520;-79
2021/04/18 12:08:25;;;;;;;12.20;10.83;;;12.40;99.90;;;;;;5065499;28;20186;-81
2021/04/18 12:10:50;;;;;;;11.23;8.93;;;12.40;99.90;;;;;;5070392;28;20171;-79
2021/04/18 12:13:16;;;;;;;10.77;9.80;;;12.60;99.90;;;;;;5065059;28;20596;-79
2021/04/18 12:15:44;;;;;;;10.10;9.10;;;12.70;99.90;;;;;;5057162;28;20467;-79
2021/04/18 12:18:10;;;;;;;10.20;9.20;;;12.70;99.90;;;;;;5056406;28;20163;-79
2021/04/18 12:20:35;;;;;;;10.93;9.93;;;12.80;99.90;;;;;;5057959;28;20453;-78
2021/04/18 12:23:01;;;;;;;10.33;8.90;;;12.70;99.90;;;;;;5055053;28;20195;-79
2021/04/18 12:25:26;;;;;;;10.17;9.23;;;12.80;99.90;;;;;;5053680;28;20246;-80
2021/04/18 12:27:52;;;;;;;11.60;10.40;;;12.70;99.90;;;;;;5055047;28;20608;-79
2021/04/18 12:30:18;;;;;;;11.50;10.47;;;12.90;99.90;;;;;;5057294;28;20171;-80
2021/04/18 12:32:46;;;;;;;10.50;9.27;;;13.00;99.90;;;;;;5056707;28;20240;-80
2021/04/18 12:35:12;;;;;;;9.37;8.47;;;12.90;99.90;;;;;;5087711;28;20407;-80
2021/04/18 12:37:37;;;;;;;9.83;8.93;;;13.10;99.90;;;;;;5101392;28;20410;-80
2021/04/18 12:40:04;;;;;;;11.50;10.40;;;13.00;99.90;;;;;;5100557;28;20246;-80
2021/04/18 12:42:29;;;;;;;10.63;9.63;;;12.80;99.90;;;;;;5095316;28;20186;-80
2021/04/18 12:44:55;;;;;;;13.13;11.83;;;12.90;99.90;;;;;;5082877;28;20420;-80
2021/04/18 12:47:20;;;;;;;9.80;8.90;;;13.10;99.90;;;;;;5085176;28;20208;-80
2021/04/18 12:49:46;;;;;;;10.37;9.47;;;13.10;99.90;;;;;;5092521;28;20538;-80
2021/04/18 12:52:12;;;;;;;11.17;9.97;;;13.30;99.90;;;;;;5084355;28;20179;-81
2021/04/18 12:54:38;;;;;;;12.20;9.87;;;13.40;99.90;;;;;;5085506;28;20837;-79